createdAt,value
2023-05-24T00:02:20.042Z,101085.19
2023-05-24T00:04:49.346Z,101094.00
2023-05-24T00:07:16.549Z,101086.75
2023-05-24T00:09:43.658Z,101088.16
2023-05-24T00:12:11.066Z,101089.19
2023-05-24T00:14:38.269Z,101093.47
2023-05-24T00:17:05.702Z,101091.31
2023-05-24T00:19:32.789Z,101094.13
2023-05-24T00:21:59.915Z,101100.38
2023-05-24T00:24:27.075Z,101101.72
2023-05-24T00:26:54.225Z,101091.72
2023-05-24T00:29:21.409Z,101096.31
2023-05-24T00:31:48.542Z,101101.53
2023-05-24T00:34:15.884Z,101104.34
2023-05-24T00:36:43.014Z,101093.91
2023-05-24T00:39:10.097Z,101099.16
2023-05-24T00:41:37.168Z,101109.97
2023-05-24T00:44:04.321Z,101097.50
2023-05-24T00:46:33.971Z,101099.53
2023-05-24T00:49:01.667Z,101100.00
2023-05-24T00:51:29.250Z,101094.13
2023-05-24T00:53:56.781Z,101097.72
2023-05-24T00:56:24.134Z,101099.84
2023-05-24T00:58:54.838Z,101094.25
2023-05-24T01:01:26.474Z,101099.84
2023-05-24T01:03:54.719Z,101093.13
2023-05-24T01:06:23.483Z,101096.53
2023-05-24T01:09:34.392Z,101102.47
2023-05-24T01:12:21.799Z,101103.03
2023-05-24T01:15:05.191Z,101099.69
2023-05-24T01:17:52.152Z,101102.44
2023-05-24T01:20:22.480Z,101095.69
2023-05-24T01:23:25.402Z,101103.81
2023-05-24T01:26:48.751Z,101102.63
2023-05-24T01:29:17.542Z,101104.72
2023-05-24T01:31:45.182Z,101100.50
2023-05-24T01:34:12.676Z,101105.75
2023-05-24T01:36:39.783Z,101104.41
2023-05-24T01:39:06.942Z,101104.81
2023-05-24T01:42:02.230Z,101109.34
2023-05-24T01:44:42.918Z,101110.81
2023-05-24T01:47:57.418Z,101103.88
2023-05-24T01:50:43.889Z,101109.88
2023-05-24T01:53:17.977Z,101111.16
2023-05-24T01:55:48.027Z,101115.69
2023-05-24T01:58:20.274Z,101113.78
2023-05-24T02:00:47.724Z,101104.81
2023-05-24T02:03:16.170Z,101107.16
2023-05-24T02:05:44.413Z,101109.31
2023-05-24T02:08:12.773Z,101105.88
2023-05-24T02:10:41.313Z,101106.03
2023-05-24T02:13:09.345Z,101108.38
2023-05-24T02:15:36.631Z,101108.03
2023-05-24T02:18:04.461Z,101110.47
2023-05-24T02:20:31.885Z,101108.16
2023-05-24T02:22:59.952Z,101115.97
2023-05-24T02:25:27.081Z,101109.00
2023-05-24T02:27:54.251Z,101106.84
2023-05-24T02:30:21.420Z,101119.13
2023-05-24T02:32:48.677Z,101107.75
2023-05-24T02:35:15.976Z,101112.44
2023-05-24T02:37:43.128Z,101108.50
2023-05-24T02:40:11.334Z,101103.66
2023-05-24T02:42:38.473Z,101100.34
2023-05-24T02:45:06.693Z,101108.25
2023-05-24T02:47:33.844Z,101108.50
2023-05-24T02:50:01.059Z,101111.97
2023-05-24T02:52:28.219Z,101101.66
2023-05-24T02:54:55.423Z,101102.41
2023-05-24T02:57:25.917Z,101103.03
2023-05-24T02:59:53.135Z,101109.56
2023-05-24T03:02:21.974Z,101109.25
2023-05-24T03:04:51.907Z,101109.44
2023-05-24T03:07:19.034Z,101111.44
2023-05-24T03:09:46.286Z,101106.94
2023-05-24T03:12:14.077Z,101108.78
2023-05-24T03:14:41.199Z,101113.50
2023-05-24T03:17:08.430Z,101110.91
2023-05-24T03:19:35.575Z,101115.53
2023-05-24T03:22:02.744Z,101115.16
2023-05-24T03:24:29.839Z,101116.63
2023-05-24T03:26:56.947Z,101116.06
2023-05-24T03:29:28.951Z,101119.22
2023-05-24T03:31:56.173Z,101121.09
2023-05-24T03:34:27.902Z,101116.66
2023-05-24T03:36:56.465Z,101128.38
2023-05-24T03:39:23.652Z,101130.69
2023-05-24T03:41:50.789Z,101130.81
2023-05-24T03:44:17.955Z,101126.78
2023-05-24T03:46:46.420Z,101138.13
2023-05-24T03:49:13.652Z,101134.47
2023-05-24T03:51:40.919Z,101137.44
2023-05-24T03:54:09.350Z,101138.84
2023-05-24T03:56:37.463Z,101133.63
2023-05-24T03:59:04.705Z,101134.97
2023-05-24T04:01:34.494Z,101143.47
2023-05-24T04:04:03.987Z,101137.84
2023-05-24T04:06:31.517Z,101132.91
2023-05-24T04:09:01.102Z,101151.34
2023-05-24T04:11:28.886Z,101139.75
2023-05-24T04:13:57.939Z,101150.09
2023-05-24T04:16:26.394Z,101145.84
2023-05-24T04:18:58.000Z,101154.81
2023-05-24T04:21:25.284Z,101161.25
2023-05-24T04:23:52.407Z,101156.38
2023-05-24T04:26:21.190Z,101162.19
2023-05-24T04:28:48.636Z,101158.31
2023-05-24T04:31:16.535Z,101156.09
2023-05-24T04:33:44.239Z,101161.13
2023-05-24T04:36:11.754Z,101153.47
2023-05-24T04:38:40.904Z,101164.72
2023-05-24T04:41:08.346Z,101163.47
2023-05-24T04:43:38.684Z,101164.16
2023-05-24T04:46:08.331Z,101169.56
2023-05-24T04:48:36.696Z,101176.09
2023-05-24T04:51:06.160Z,101174.69
2023-05-24T04:53:33.355Z,101170.69
2023-05-24T04:56:00.621Z,101176.00
2023-05-24T04:58:27.804Z,101177.47
2023-05-24T05:00:54.931Z,101185.84
2023-05-24T05:03:22.219Z,101182.06
2023-05-24T05:05:49.370Z,101185.53
2023-05-24T05:08:16.513Z,101185.53
2023-05-24T05:10:44.493Z,101190.44
2023-05-24T05:13:11.786Z,101188.59
2023-05-24T05:15:40.900Z,101196.09
2023-05-24T05:18:12.696Z,101195.81
2023-05-24T05:20:40.000Z,101197.47
2023-05-24T05:23:07.183Z,101204.69
2023-05-24T05:25:34.289Z,101198.88
2023-05-24T05:28:01.487Z,101204.72
2023-05-24T05:30:28.920Z,101198.00
2023-05-24T05:32:56.168Z,101203.34
2023-05-24T05:35:23.923Z,101212.50
2023-05-24T05:37:51.077Z,101211.63
2023-05-24T05:40:20.994Z,101212.47
2023-05-24T05:42:49.092Z,101207.19
2023-05-24T05:45:16.985Z,101212.31
2023-05-24T05:47:46.666Z,101216.78
2023-05-24T05:50:14.109Z,101228.91
2023-05-24T05:52:41.322Z,101234.31
2023-05-24T05:55:09.909Z,101230.53
2023-05-24T05:57:37.140Z,101235.25
2023-05-24T06:00:05.187Z,101238.31
2023-05-24T06:02:32.495Z,101239.44
2023-05-24T06:05:00.264Z,101236.78
2023-05-24T06:07:27.633Z,101232.81
2023-05-24T06:09:54.932Z,101234.16
2023-05-24T06:12:22.039Z,101233.03
2023-05-24T06:14:50.692Z,101247.47
2023-05-24T06:17:19.019Z,101236.91
2023-05-24T06:20:11.142Z,101240.69
2023-05-24T06:22:39.840Z,101246.38
2023-05-24T06:25:07.422Z,101241.94
2023-05-24T06:27:34.862Z,101248.81
2023-05-24T06:30:02.217Z,101250.78
2023-05-24T06:32:29.382Z,101253.94
2023-05-24T06:34:59.857Z,101255.19
2023-05-24T06:37:31.626Z,101260.69
2023-05-24T06:39:58.829Z,101257.00
2023-05-24T06:42:26.493Z,101266.91
2023-05-24T06:44:54.128Z,101268.16
2023-05-24T06:47:22.772Z,101274.09
2023-05-24T06:49:51.384Z,101283.09
2023-05-24T06:52:18.507Z,101274.75
2023-05-24T06:54:45.697Z,101279.72
2023-05-24T06:57:13.022Z,101273.84
2023-05-24T07:00:08.827Z,101275.16
2023-05-24T07:02:36.126Z,101275.69
2023-05-24T07:05:12.091Z,101280.38
2023-05-24T07:07:43.359Z,101282.47
2023-05-24T07:10:12.338Z,101281.47
2023-05-24T07:12:39.657Z,101282.06
2023-05-24T07:15:10.009Z,101290.16
2023-05-24T07:17:37.445Z,101288.59
2023-05-24T07:20:13.670Z,101297.34
2023-05-24T07:22:44.167Z,101294.53
2023-05-24T07:25:11.522Z,101293.94
2023-05-24T07:27:38.871Z,101290.94
2023-05-24T07:30:16.476Z,101295.75
2023-05-24T07:32:51.973Z,101298.81
2023-05-24T07:35:19.528Z,101308.13
2023-05-24T07:37:47.942Z,101306.94
2023-05-24T07:40:18.561Z,101310.69
2023-05-24T07:42:48.681Z,101303.16
2023-05-24T07:45:15.939Z,101313.31
2023-05-24T07:47:43.307Z,101317.63
2023-05-24T07:50:11.836Z,101318.72
2023-05-24T07:52:39.860Z,101321.16
2023-05-24T07:55:07.857Z,101320.72
2023-05-24T07:57:35.071Z,101327.22
2023-05-24T08:00:10.189Z,101330.09
2023-05-24T08:02:40.299Z,101321.94
2023-05-24T08:05:09.453Z,101322.13
2023-05-24T08:07:36.886Z,101329.56
2023-05-24T08:10:04.355Z,101328.22
2023-05-24T08:12:31.530Z,101331.44
2023-05-24T08:14:58.908Z,101323.13
2023-05-24T08:17:33.884Z,101331.22
2023-05-24T08:20:01.140Z,101339.75
2023-05-24T08:22:28.345Z,101337.03
2023-05-24T08:24:55.525Z,101336.44
2023-05-24T08:27:23.990Z,101338.84
2023-05-24T08:29:51.420Z,101334.34
2023-05-24T08:32:18.605Z,101344.06
2023-05-24T08:34:46.356Z,101339.34
2023-05-24T08:37:16.248Z,101344.50
2023-05-24T08:39:45.595Z,101342.81
2023-05-24T08:42:13.086Z,101346.81
2023-05-24T08:44:53.508Z,101347.06
2023-05-24T08:47:24.139Z,101340.84
2023-05-24T08:49:55.665Z,101343.50
2023-05-24T08:52:24.205Z,101340.19
2023-05-24T08:54:53.025Z,101351.19
2023-05-24T08:57:31.446Z,101356.94
2023-05-24T08:59:59.368Z,101345.16
2023-05-24T09:02:30.246Z,101344.53
2023-05-24T09:05:00.523Z,101360.06
2023-05-24T09:07:30.441Z,101363.91
2023-05-24T09:10:18.648Z,101361.97
2023-05-24T09:13:03.066Z,101372.16
2023-05-24T09:15:35.009Z,101361.41
2023-05-24T09:18:03.935Z,101360.75
2023-05-24T09:20:31.370Z,101364.31
2023-05-24T09:23:04.743Z,101363.81
2023-05-24T09:25:32.309Z,101363.84
2023-05-24T09:28:05.964Z,101368.19
2023-05-24T09:30:33.876Z,101360.91
2023-05-24T09:33:02.513Z,101355.97
2023-05-24T09:35:31.368Z,101363.59
2023-05-24T09:38:02.475Z,101371.53
2023-05-24T09:40:30.802Z,101368.59
2023-05-24T09:43:12.486Z,101366.75
2023-05-24T09:45:49.312Z,101368.25
2023-05-24T09:48:20.840Z,101375.41
2023-05-24T09:51:11.557Z,101376.78
2023-05-24T09:53:42.043Z,101365.94
2023-05-24T09:56:10.506Z,101373.22
2023-05-24T09:58:37.685Z,101378.00
2023-05-24T10:01:14.624Z,101374.31
2023-05-24T10:04:04.783Z,101376.75
2023-05-24T10:06:41.171Z,101371.38
2023-05-24T10:09:10.242Z,101375.25
2023-05-24T10:11:37.773Z,101377.84
2023-05-24T10:14:25.680Z,101384.00
2023-05-24T10:16:53.244Z,101380.63
2023-05-24T10:19:21.767Z,101383.34
2023-05-24T10:21:50.406Z,101389.53
2023-05-24T10:24:23.998Z,101390.56
2023-05-24T10:26:53.340Z,101395.22
2023-05-24T10:29:55.319Z,101391.31
2023-05-24T10:32:25.623Z,101397.34
2023-05-24T10:34:54.260Z,101401.22
2023-05-24T10:37:22.228Z,101408.78
2023-05-24T10:39:53.520Z,101400.50
2023-05-24T10:42:21.564Z,101395.84
2023-05-24T10:44:48.840Z,101406.06
2023-05-24T10:47:18.017Z,101405.97
2023-05-24T10:49:58.278Z,101400.44
2023-05-24T10:52:43.637Z,101401.97
2023-05-24T10:55:13.592Z,101400.13
2023-05-24T10:57:41.750Z,101400.25
2023-05-24T11:00:34.068Z,101396.81
2023-05-24T11:03:10.881Z,101390.41
2023-05-24T11:05:48.052Z,101397.84
2023-05-24T11:08:35.838Z,101395.56
2023-05-24T11:11:23.211Z,101403.56
2023-05-24T11:13:58.057Z,101399.66
2023-05-24T11:16:40.469Z,101389.97
2023-05-24T11:19:38.525Z,101388.47
2023-05-24T11:22:13.940Z,101392.00
2023-05-24T11:24:42.249Z,101389.03
2023-05-24T11:27:13.645Z,101389.56
2023-05-24T11:29:48.785Z,101388.16
2023-05-24T11:32:18.900Z,101396.81
2023-05-24T11:34:48.542Z,101399.72
2023-05-24T11:37:26.336Z,101399.09
2023-05-24T11:39:58.982Z,101399.84
2023-05-24T11:42:29.398Z,101399.66
2023-05-24T11:45:00.054Z,101403.78
2023-05-24T11:47:27.877Z,101399.75
2023-05-24T11:49:57.699Z,101388.56
2023-05-24T11:52:34.210Z,101396.94
2023-05-24T11:55:01.378Z,101397.66
2023-05-24T11:57:40.059Z,101392.34
2023-05-24T12:00:11.504Z,101398.09
2023-05-24T12:02:40.577Z,101405.59
2023-05-24T12:05:10.581Z,101403.31
2023-05-24T12:07:38.161Z,101412.25
2023-05-24T12:10:06.868Z,101418.50
2023-05-24T12:12:45.192Z,101413.16
2023-05-24T12:15:14.829Z,101415.88
2023-05-24T12:17:42.425Z,101421.63
2023-05-24T12:20:12.315Z,101414.47
2023-05-24T12:22:47.478Z,101407.00
2023-05-24T12:25:21.212Z,101408.72
2023-05-24T12:27:55.834Z,101411.94
2023-05-24T12:30:29.081Z,101412.53
2023-05-24T12:32:57.772Z,101407.72
2023-05-24T12:35:25.427Z,101406.69
2023-05-24T12:38:00.166Z,101402.81
2023-05-24T12:40:27.647Z,101390.13
2023-05-24T12:42:57.946Z,101390.28
2023-05-24T12:45:27.652Z,101397.44
2023-05-24T12:48:04.866Z,101390.13
2023-05-24T12:50:53.929Z,101400.00
2023-05-24T12:53:24.197Z,101392.91
2023-05-24T12:55:55.868Z,101404.66
2023-05-24T12:58:27.808Z,101404.75
2023-05-24T13:00:55.357Z,101410.84
2023-05-24T13:03:23.052Z,101414.59
2023-05-24T13:05:50.963Z,101411.75
2023-05-24T13:08:18.959Z,101415.28
2023-05-24T13:10:50.910Z,101415.19
2023-05-24T13:13:24.366Z,101412.47
2023-05-24T13:15:52.678Z,101414.22
2023-05-24T13:18:20.071Z,101417.13
2023-05-24T13:20:47.647Z,101408.78
2023-05-24T13:23:18.399Z,101406.97
2023-05-24T13:25:45.651Z,101400.38
2023-05-24T13:28:12.896Z,101402.22
2023-05-24T13:31:23.273Z,101403.47
2023-05-24T13:33:52.078Z,101397.84
2023-05-24T13:36:19.850Z,101394.66
2023-05-24T13:38:47.138Z,101395.34
2023-05-24T13:41:14.324Z,101404.47
2023-05-24T13:43:41.759Z,101402.41
2023-05-24T13:46:10.360Z,101401.72
2023-05-24T13:48:39.720Z,101399.75
2023-05-24T13:51:06.870Z,101395.00
2023-05-24T13:53:33.996Z,101397.25
2023-05-24T13:56:01.227Z,101398.09
2023-05-24T13:58:28.465Z,101401.59
2023-05-24T14:00:56.444Z,101400.81
2023-05-24T14:03:24.296Z,101400.31
2023-05-24T14:05:54.389Z,101393.63
2023-05-24T14:08:23.162Z,101391.25
2023-05-24T14:10:50.304Z,101386.38
2023-05-24T14:13:59.005Z,101401.31
2023-05-24T14:16:10.965Z,101395.88
2023-05-24T14:18:38.284Z,101392.81
2023-05-24T14:21:26.020Z,101404.28
2023-05-24T14:23:53.423Z,101400.25
2023-05-24T14:26:23.785Z,101398.69
2023-05-24T14:28:59.419Z,101395.59
2023-05-24T14:31:29.843Z,101391.47
2023-05-24T14:33:57.628Z,101384.75
2023-05-24T14:36:28.327Z,101387.22
2023-05-24T14:38:55.814Z,101388.22
2023-05-24T14:41:29.004Z,101398.25
2023-05-24T14:43:56.519Z,101390.72
2023-05-24T14:46:26.871Z,101387.66
2023-05-24T14:49:08.882Z,101387.13
2023-05-24T14:51:51.043Z,101388.84
2023-05-24T14:54:43.130Z,101398.56
2023-05-24T14:57:13.890Z,101393.66
2023-05-24T15:02:25.875Z,101388.56
2023-05-24T15:04:53.378Z,101394.56
2023-05-24T15:07:21.470Z,101389.88
2023-05-24T15:09:48.874Z,101388.09
2023-05-24T15:12:18.862Z,101399.97
2023-05-24T15:14:46.025Z,101391.31
2023-05-24T15:17:13.372Z,101390.31
2023-05-24T15:19:40.751Z,101396.25
2023-05-24T15:22:08.284Z,101392.38
2023-05-24T15:24:37.690Z,101395.84
2023-05-24T15:27:05.058Z,101388.97
2023-05-24T15:29:32.605Z,101388.38
2023-05-24T15:32:01.460Z,101394.69
2023-05-24T15:34:28.932Z,101389.16
2023-05-24T15:36:56.113Z,101390.56
2023-05-24T15:39:23.451Z,101392.59
2023-05-24T15:41:50.758Z,101393.03
2023-05-24T15:44:21.655Z,101398.31
2023-05-24T15:46:48.911Z,101390.22
2023-05-24T15:49:16.148Z,101388.56
2023-05-24T15:54:13.756Z,101387.63
2023-05-24T15:56:40.882Z,101382.31
2023-05-24T15:59:08.708Z,101388.44
2023-05-24T16:01:37.259Z,101394.66
2023-05-24T16:04:07.854Z,101382.94
2023-05-24T16:06:37.090Z,101394.75
2023-05-24T16:09:05.300Z,101386.19
2023-05-24T16:11:43.242Z,101385.75
2023-05-24T16:14:10.417Z,101390.09
2023-05-24T16:16:38.018Z,101391.94
2023-05-24T16:19:08.252Z,101386.38
2023-05-24T16:21:35.965Z,101392.28
2023-05-24T16:24:04.200Z,101386.44
2023-05-24T16:26:32.248Z,101385.91
2023-05-24T16:28:59.984Z,101393.75
2023-05-24T16:31:27.200Z,101392.78
2023-05-24T16:33:55.025Z,101392.06
2023-05-24T16:36:22.172Z,101393.56
2023-05-24T16:38:49.323Z,101400.25
2023-05-24T16:41:16.715Z,101401.25
2023-05-24T16:43:44.071Z,101393.34
2023-05-24T16:46:11.698Z,101396.91
2023-05-24T16:48:39.082Z,101397.75
2023-05-24T16:51:06.624Z,101398.91
2023-05-24T16:53:34.004Z,101404.56
2023-05-24T16:56:01.799Z,101400.53
2023-05-24T16:58:30.990Z,101400.75
2023-05-24T17:00:58.528Z,101398.31
2023-05-24T17:03:28.886Z,101404.56
2023-05-24T17:06:03.389Z,101400.75
2023-05-24T17:08:36.900Z,101398.66
2023-05-24T17:11:05.268Z,101408.34
2023-05-24T17:13:33.359Z,101401.97
2023-05-24T17:16:05.031Z,101404.66
2023-05-24T17:18:32.555Z,101408.13
2023-05-24T17:21:05.063Z,101405.25
2023-05-24T17:23:36.700Z,101409.00
2023-05-24T17:26:05.752Z,101410.56
2023-05-24T17:28:49.207Z,101413.91
2023-05-24T17:31:16.924Z,101420.25
2023-05-24T17:33:44.290Z,101412.84
2023-05-24T17:36:12.256Z,101416.75
2023-05-24T17:38:43.749Z,101420.97
2023-05-24T17:41:14.609Z,101418.31
2023-05-24T17:43:42.143Z,101429.22
2023-05-24T17:46:37.320Z,101432.63
2023-05-24T17:49:06.320Z,101435.69
2023-05-24T17:51:34.999Z,101437.91
2023-05-24T17:54:02.143Z,101432.31
2023-05-24T17:56:30.346Z,101439.13
2023-05-24T17:58:58.011Z,101438.19
2023-05-24T18:01:25.795Z,101439.78
2023-05-24T18:03:53.001Z,101435.44
2023-05-24T18:06:20.491Z,101433.59
2023-05-24T18:08:47.892Z,101434.44
2023-05-24T18:11:15.687Z,101430.13
2023-05-24T18:13:43.642Z,101442.72
2023-05-24T18:16:12.061Z,101439.84
2023-05-24T18:18:39.604Z,101448.03
2023-05-24T18:21:09.570Z,101451.03
2023-05-24T18:23:38.071Z,101454.19
2023-05-24T18:26:12.385Z,101454.00
2023-05-24T18:28:41.749Z,101454.16
2023-05-24T18:31:10.756Z,101461.78
2023-05-24T18:33:38.298Z,101462.75
2023-05-24T18:36:06.335Z,101466.22
2023-05-24T18:38:39.771Z,101459.19
2023-05-24T18:41:09.847Z,101462.16
2023-05-24T18:43:37.378Z,101466.22
2023-05-24T18:46:04.805Z,101465.63
2023-05-24T18:48:31.991Z,101473.47
2023-05-24T18:50:59.224Z,101471.84
2023-05-24T18:53:26.321Z,101473.44
2023-05-24T18:55:53.504Z,101475.31
2023-05-24T18:58:20.726Z,101469.75
2023-05-24T19:00:47.888Z,101474.91
2023-05-24T19:03:15.118Z,101480.56
2023-05-24T19:05:44.136Z,101472.78
2023-05-24T19:08:11.598Z,101485.19
2023-05-24T19:10:38.840Z,101479.66
2023-05-24T19:13:07.044Z,101483.19
2023-05-24T19:15:39.213Z,101491.78
2023-05-24T19:18:06.640Z,101493.00
2023-05-24T19:20:33.964Z,101501.13
2023-05-24T19:23:01.287Z,101505.72
2023-05-24T19:25:28.677Z,101511.00
2023-05-24T19:28:00.025Z,101510.84
2023-05-24T19:30:27.929Z,101510.00
2023-05-24T19:32:55.178Z,101519.53
2023-05-24T19:35:22.520Z,101516.00
2023-05-24T19:37:53.465Z,101516.31
2023-05-24T19:40:21.970Z,101524.81
2023-05-24T19:42:49.164Z,101519.25
2023-05-24T19:45:16.526Z,101527.38
2023-05-24T19:47:45.245Z,101525.41
2023-05-24T19:50:12.443Z,101517.16
2023-05-24T19:52:39.626Z,101528.88
2023-05-24T19:55:10.117Z,101517.88
2023-05-24T19:57:37.256Z,101522.66
2023-05-24T20:00:06.356Z,101525.09
2023-05-24T20:02:36.776Z,101531.84
2023-05-24T20:05:07.447Z,101531.22
2023-05-24T20:07:34.658Z,101528.72
2023-05-24T20:10:05.538Z,101536.97
2023-05-24T20:12:35.433Z,101535.88
2023-05-24T20:15:08.183Z,101532.41
2023-05-24T20:17:35.401Z,101530.44
2023-05-24T20:20:04.330Z,101531.16
2023-05-24T20:22:31.506Z,101538.91
2023-05-24T20:24:58.728Z,101530.28
2023-05-24T20:27:25.922Z,101526.94
2023-05-24T20:29:53.111Z,101534.47
2023-05-24T20:32:20.502Z,101538.06
2023-05-24T20:34:47.764Z,101538.84
2023-05-24T20:37:14.992Z,101533.91
2023-05-24T20:39:42.191Z,101543.34
2023-05-24T20:42:09.322Z,101545.31
2023-05-24T20:44:36.566Z,101541.81
2023-05-24T20:47:03.985Z,101549.97
2023-05-24T20:49:31.361Z,101545.38
2023-05-24T20:51:58.638Z,101553.31
2023-05-24T20:54:26.091Z,101552.75
2023-05-24T20:56:53.328Z,101560.09
2023-05-24T20:59:20.619Z,101557.06
2023-05-24T21:01:48.031Z,101561.81
2023-05-24T21:04:15.500Z,101559.28
2023-05-24T21:06:42.688Z,101566.94
2023-05-24T21:09:09.977Z,101555.38
2023-05-24T21:11:37.228Z,101558.75
2023-05-24T21:14:04.453Z,101561.59
2023-05-24T21:16:32.694Z,101563.13
2023-05-24T21:19:02.740Z,101572.34
2023-05-24T21:21:29.887Z,101581.78
2023-05-24T21:24:03.612Z,101579.38
2023-05-24T21:26:31.051Z,101586.59
2023-05-24T21:28:58.332Z,101582.16
2023-05-24T21:33:53.725Z,101584.63
2023-05-24T21:36:24.343Z,101584.63
2023-05-24T21:38:51.557Z,101585.63
2023-05-24T21:41:19.405Z,101593.41
2023-05-24T21:44:00.808Z,101597.84
2023-05-24T21:46:33.049Z,101589.31
2023-05-24T21:49:20.756Z,101597.88
2023-05-24T21:51:49.016Z,101602.47
2023-05-24T21:54:20.331Z,101601.47
2023-05-24T21:56:51.399Z,101594.63
2023-05-24T21:59:22.375Z,101600.13
2023-05-24T22:01:53.143Z,101599.56
2023-05-24T22:04:23.480Z,101604.09
2023-05-24T22:07:04.404Z,101606.84
2023-05-24T22:09:35.022Z,101608.00
2023-05-24T22:12:19.427Z,101610.44
2023-05-24T22:14:55.994Z,101613.72
2023-05-24T22:17:24.888Z,101617.16
2023-05-24T22:19:53.335Z,101615.72
2023-05-24T22:22:27.279Z,101615.47
2023-05-24T22:25:00.162Z,101617.31
2023-05-24T22:27:30.822Z,101614.03
2023-05-24T22:29:58.412Z,101614.19
2023-05-24T22:32:25.633Z,101610.31
2023-05-24T22:34:52.999Z,101610.81
2023-05-24T22:37:20.465Z,101610.88
2023-05-24T22:39:50.507Z,101613.75
2023-05-24T22:42:18.940Z,101619.25
2023-05-24T22:44:46.592Z,101612.66
2023-05-24T22:47:14.184Z,101612.94
2023-05-24T22:49:41.407Z,101617.63
2023-05-24T22:52:15.020Z,101613.47
2023-05-24T22:54:42.330Z,101620.16
2023-05-24T22:57:09.892Z,101615.94
2023-05-24T22:59:37.373Z,101617.75
2023-05-24T23:02:04.635Z,101626.91
2023-05-24T23:04:33.573Z,101629.31
2023-05-24T23:07:07.100Z,101633.59
2023-05-24T23:09:38.250Z,101624.25
2023-05-24T23:12:08.539Z,101623.97
2023-05-24T23:14:38.905Z,101622.16
2023-05-24T23:17:17.141Z,101620.13
2023-05-24T23:19:45.006Z,101617.34
2023-05-24T23:22:18.498Z,101620.38
2023-05-24T23:24:49.901Z,101613.16
2023-05-24T23:27:42.372Z,101606.78
2023-05-24T23:30:10.686Z,101615.84
2023-05-24T23:32:41.643Z,101605.97
2023-05-24T23:35:09.692Z,101608.03
2023-05-24T23:37:37.593Z,101605.72
2023-05-24T23:40:06.689Z,101613.34
2023-05-24T23:42:37.879Z,101616.53
2023-05-24T23:45:11.995Z,101618.91
2023-05-24T23:47:39.195Z,101624.91
2023-05-24T23:50:07.920Z,101621.13
2023-05-24T23:52:37.966Z,101631.31
2023-05-24T23:55:06.493Z,101622.84
2023-05-24T23:57:39.196Z,101625.38
